Time;durP1;ratioP1;P1;durP2;ratioP2;P2;SDS_P1;SDS_P2;PMS_P1;PMS_P2;Temp;Humidity;BMP_temperature;BMP_pressure;BME280_temperature;BME280_humidity;BME280_pressure;Samples;Min_cycle;Max_cycle;Signal;HPM_P1;HPM_P2
2021/11/30 00:01:36;;;;;;;20.67;12.70;;;;;;;;;;4994411;28;20197;-47
2021/11/30 00:04:02;;;;;;;23.77;13.50;;;;;;;;;;4994828;28;20193;-47
2021/11/30 00:06:28;;;;;;;20.83;13.80;;;;;;;;;;4994595;28;20764;-47
2021/11/30 00:09:09;;;;;;;21.55;13.15;;;;;;;;;;4994430;28;20200;-47
2021/11/30 00:11:35;;;;;;;22.38;12.80;;;;;;;;;;4994259;28;20227;-47
2021/11/30 00:14:01;;;;;;;19.75;12.93;;;;;;;;;;4994430;28;20173;-48
2021/11/30 00:16:27;;;;;;;22.80;12.75;;;;;;;;;;4994727;28;20198;-47
2021/11/30 00:18:53;;;;;;;24.53;13.10;;;;;;;;;;4994374;28;20641;-47
2021/11/30 00:21:19;;;;;;;15.10;10.90;;;;;;;;;;4993950;28;20890;-48
2021/11/30 00:23:45;;;;;;;24.27;12.43;;;;;;;;;;4994305;28;20411;-47
2021/11/30 00:26:11;;;;;;;15.90;11.80;;;;;;;;;;4994300;28;20677;-48
2021/11/30 00:28:37;;;;;;;21.00;11.77;;;;;;;;;;4994018;28;20405;-48
2021/11/30 00:31:03;;;;;;;32.77;10.93;;;;;;;;;;4993782;28;20423;-48
2021/11/30 00:33:29;;;;;;;16.65;10.02;;;;;;;;;;4994761;28;20491;-48
2021/11/30 00:35:55;;;;;;;13.10;9.73;;;;;;;;;;4994019;28;20212;-48
2021/11/30 00:38:21;;;;;;;15.77;9.88;;;;;;;;;;4993991;28;20223;-47
2021/11/30 00:40:48;;;;;;;10.93;8.18;;;;;;;;;;4993637;28;20232;-48
2021/11/30 00:43:23;;;;;;;16.15;10.38;;;;;;;;;;4993917;28;20184;-48
2021/11/30 00:45:55;;;;;;;14.10;9.65;;;;;;;;;;4993781;28;20195;-48
2021/11/30 00:48:22;;;;;;;15.48;11.32;;;;;;;;;;4993118;28;20162;-49
2021/11/30 00:50:49;;;;;;;12.38;9.13;;;;;;;;;;4993485;28;20680;-47
2021/11/30 00:53:15;;;;;;;12.13;8.85;;;;;;;;;;4993537;28;20185;-47
2021/11/30 00:55:41;;;;;;;14.53;8.93;;;;;;;;;;4993555;28;20216;-48
2021/11/30 00:58:07;;;;;;;16.50;9.90;;;;;;;;;;4993479;28;20455;-48
2021/11/30 01:00:35;;;;;;;13.93;8.60;;;;;;;;;;4993290;28;20189;-47
2021/11/30 01:03:05;;;;;;;10.55;8.30;;;;;;;;;;4993266;28;20471;-47
2021/11/30 01:05:31;;;;;;;11.15;8.73;;;;;;;;;;4993357;28;20193;-48
2021/11/30 01:07:57;;;;;;;13.98;9.85;;;;;;;;;;4993410;28;20203;-48
2021/11/30 01:10:23;;;;;;;14.87;9.23;;;;;;;;;;4993073;28;20279;-48
2021/11/30 01:12:49;;;;;;;11.40;8.87;;;;;;;;;;4993217;28;20409;-48
2021/11/30 01:15:17;;;;;;;17.03;8.90;;;;;;;;;;4993174;28;20431;-48
2021/11/30 01:17:43;;;;;;;14.30;9.80;;;;;;;;;;4993113;28;20436;-46
2021/11/30 01:20:09;;;;;;;13.30;8.52;;;;;;;;;;4992869;28;20184;-48
2021/11/30 01:22:35;;;;;;;15.23;9.75;;;;;;;;;;4993141;28;20535;-47
2021/11/30 01:25:01;;;;;;;21.43;10.67;;;;;;;;;;4993021;28;20168;-47
2021/11/30 01:27:27;;;;;;;17.73;11.07;;;;;;;;;;4992915;28;20463;-47
2021/11/30 01:29:53;;;;;;;14.60;9.77;;;;;;;;;;4992704;28;20401;-48
2021/11/30 01:32:19;;;;;;;22.88;10.65;;;;;;;;;;4992904;28;20408;-48
2021/11/30 01:34:45;;;;;;;13.70;9.97;;;;;;;;;;4992860;28;20192;-47
2021/11/30 01:37:16;;;;;;;15.82;10.10;;;;;;;;;;4992886;28;20404;-47
2021/11/30 01:39:43;;;;;;;13.98;9.90;;;;;;;;;;4992653;28;20200;-47
2021/11/30 01:42:12;;;;;;;19.17;9.93;;;;;;;;;;4992647;28;20197;-49
2021/11/30 01:47:23;;;;;;;16.48;10.63;;;;;;;;;;4992866;28;20208;-48
2021/11/30 01:49:50;;;;;;;15.88;10.02;;;;;;;;;;4992569;28;20168;-47
2021/11/30 01:52:16;;;;;;;11.82;9.68;;;;;;;;;;4992646;28;20212;-46
2021/11/30 01:54:43;;;;;;;18.80;10.00;;;;;;;;;;4992752;28;20200;-47
2021/11/30 01:57:10;;;;;;;10.65;8.77;;;;;;;;;;4992491;28;20412;-47
2021/11/30 01:59:36;;;;;;;13.88;9.27;;;;;;;;;;4992544;28;20169;-47
2021/11/30 02:02:03;;;;;;;18.02;9.35;;;;;;;;;;4991887;28;20189;-46
2021/11/30 02:04:29;;;;;;;17.92;8.88;;;;;;;;;;4974612;28;20315;-47
2021/11/30 02:06:55;;;;;;;17.45;9.73;;;;;;;;;;4992154;28;20197;-48
2021/11/30 02:09:21;;;;;;;18.90;9.55;;;;;;;;;;4992343;28;20249;-48
2021/11/30 02:11:48;;;;;;;11.82;6.80;;;;;;;;;;4992041;28;20614;-48
2021/11/30 02:14:14;;;;;;;10.32;7.72;;;;;;;;;;4992411;28;20166;-48
2021/11/30 02:16:40;;;;;;;11.55;7.90;;;;;;;;;;4992321;28;20185;-48
2021/11/30 02:19:06;;;;;;;14.80;7.70;;;;;;;;;;4992388;28;20169;-48
2021/11/30 02:21:36;;;;;;;13.53;7.67;;;;;;;;;;4992113;28;20193;-48
2021/11/30 02:24:03;;;;;;;18.90;7.65;;;;;;;;;;4992394;28;20779;-48
2021/11/30 02:26:30;;;;;;;11.18;6.97;;;;;;;;;;4992142;28;20197;-48
2021/11/30 02:28:57;;;;;;;10.55;5.55;;;;;;;;;;4992272;28;20176;-47
2021/11/30 02:31:23;;;;;;;11.50;6.82;;;;;;;;;;4992011;28;20181;-46
2021/11/30 02:33:50;;;;;;;14.15;6.15;;;;;;;;;;4992161;28;20165;-46
2021/11/30 02:36:29;;;;;;;14.75;5.53;;;;;;;;;;4992223;28;20177;-47
2021/11/30 02:38:56;;;;;;;10.93;6.60;;;;;;;;;;4992115;28;20252;-47
2021/11/30 02:41:23;;;;;;;11.40;5.00;;;;;;;;;;4991881;28;20736;-47
2021/11/30 02:43:49;;;;;;;13.10;5.95;;;;;;;;;;4992117;28;20169;-47
2021/11/30 02:46:30;;;;;;;13.18;6.78;;;;;;;;;;4992101;28;20232;-47
2021/11/30 02:48:56;;;;;;;12.07;6.95;;;;;;;;;;4992107;28;20165;-46
2021/11/30 02:51:23;;;;;;;16.27;7.68;;;;;;;;;;4991658;28;20193;-47
2021/11/30 02:53:49;;;;;;;14.45;7.40;;;;;;;;;;4991846;28;20181;-46
2021/11/30 02:56:15;;;;;;;9.85;6.00;;;;;;;;;;4974644;28;20661;-47
2021/11/30 02:58:41;;;;;;;12.83;6.37;;;;;;;;;;4992046;28;20249;-47
2021/11/30 03:01:09;;;;;;;13.20;5.83;;;;;;;;;;4992087;28;20796;-48
2021/11/30 03:03:35;;;;;;;12.27;5.60;;;;;;;;;;4991931;28;20415;-48
2021/11/30 03:06:01;;;;;;;11.23;6.50;;;;;;;;;;4991887;28;20558;-47
2021/11/30 03:08:27;;;;;;;9.90;6.07;;;;;;;;;;4991893;28;20396;-48
2021/11/30 03:10:55;;;;;;;17.88;6.18;;;;;;;;;;4993524;28;20506;-48
2021/11/30 03:13:21;;;;;;;8.65;5.20;;;;;;;;;;4995459;28;20165;-47
2021/11/30 03:15:53;;;;;;;12.70;7.20;;;;;;;;;;4995506;28;20180;-46
2021/11/30 03:18:19;;;;;;;12.90;7.05;;;;;;;;;;4995432;28;20404;-46
2021/11/30 03:20:45;;;;;;;13.40;7.25;;;;;;;;;;4995077;28;20672;-47
2021/11/30 03:23:11;;;;;;;12.23;6.67;;;;;;;;;;4995387;28;20192;-47
2021/11/30 03:25:39;;;;;;;7.93;6.33;;;;;;;;;;4996284;28;20496;-46
2021/11/30 03:28:05;;;;;;;12.13;6.75;;;;;;;;;;4998883;28;20759;-47
2021/11/30 03:30:31;;;;;;;12.20;6.07;;;;;;;;;;5000586;28;20188;-47
2021/11/30 03:35:42;;;;;;;10.65;5.90;;;;;;;;;;5000112;28;20176;-47
2021/11/30 03:38:08;;;;;;;11.40;6.60;;;;;;;;;;4998734;28;20172;-47
2021/11/30 03:40:34;;;;;;;12.07;5.53;;;;;;;;;;4996739;28;20431;-47
2021/11/30 03:43:00;;;;;;;9.33;5.77;;;;;;;;;;4995978;28;20255;-46
2021/11/30 03:45:26;;;;;;;7.57;5.10;;;;;;;;;;4995968;28;20904;-47
2021/11/30 03:47:52;;;;;;;9.90;6.33;;;;;;;;;;4996064;28;20885;-48
2021/11/30 03:50:18;;;;;;;9.98;6.32;;;;;;;;;;4995037;28;20446;-47
2021/11/30 03:52:44;;;;;;;11.07;6.50;;;;;;;;;;4994692;28;20177;-47
2021/11/30 03:55:10;;;;;;;8.60;6.10;;;;;;;;;;4994646;28;20768;-47
2021/11/30 03:57:36;;;;;;;7.40;6.18;;;;;;;;;;4994728;28;20173;-46
2021/11/30 04:00:07;;;;;;;7.73;6.03;;;;;;;;;;4994251;28;20737;-46
2021/11/30 04:02:33;;;;;;;7.97;4.45;;;;;;;;;;4994618;28;20459;-46
2021/11/30 04:04:59;;;;;;;9.90;6.13;;;;;;;;;;4994502;28;20235;-47
2021/11/30 04:07:25;;;;;;;8.17;5.90;;;;;;;;;;4994439;28;20210;-47
2021/11/30 04:09:51;;;;;;;6.13;4.90;;;;;;;;;;4994220;28;20408;-47
2021/11/30 04:12:17;;;;;;;9.13;5.15;;;;;;;;;;4994427;28;20406;-46
2021/11/30 04:14:43;;;;;;;5.70;5.07;;;;;;;;;;4994270;28;20172;-47
2021/11/30 04:17:09;;;;;;;8.07;6.07;;;;;;;;;;4994335;28;20637;-47
2021/11/30 04:19:35;;;;;;;5.63;5.03;;;;;;;;;;4994288;28;20487;-47
2021/11/30 04:22:01;;;;;;;6.80;5.07;;;;;;;;;;4992904;28;20789;-46
2021/11/30 04:24:27;;;;;;;5.53;4.93;;;;;;;;;;4994137;28;20423;-47
2021/11/30 04:26:53;;;;;;;5.07;4.57;;;;;;;;;;4994057;28;20202;-46
2021/11/30 04:29:19;;;;;;;4.20;3.80;;;;;;;;;;4993993;28;20627;-47
2021/11/30 04:31:45;;;;;;;4.72;4.28;;;;;;;;;;4993763;28;20433;-46
2021/11/30 04:34:11;;;;;;;5.60;4.30;;;;;;;;;;4993931;28;20169;-47
2021/11/30 04:36:37;;;;;;;6.88;4.75;;;;;;;;;;4993925;28;20462;-47
2021/11/30 04:39:04;;;;;;;6.00;4.13;;;;;;;;;;4993931;28;20173;-46
2021/11/30 04:41:30;;;;;;;10.80;3.95;;;;;;;;;;4993579;28;20499;-47
2021/11/30 04:43:56;;;;;;;4.65;4.25;;;;;;;;;;4993746;28;20198;-46
2021/11/30 04:46:26;;;;;;;4.60;4.20;;;;;;;;;;4993711;28;20617;-46
2021/11/30 04:49:05;;;;;;;7.43;3.95;;;;;;;;;;4993795;28;20407;-46
2021/11/30 04:51:32;;;;;;;3.83;3.42;;;;;;;;;;4993394;28;20190;-47
2021/11/30 04:53:59;;;;;;;3.10;2.90;;;;;;;;;;4993532;28;20181;-46
2021/11/30 04:56:25;;;;;;;4.57;4.00;;;;;;;;;;4993507;28;20162;-46
2021/11/30 04:58:52;;;;;;;6.80;4.13;;;;;;;;;;4993511;28;20272;-46
2021/11/30 05:01:19;;;;;;;6.32;3.80;;;;;;;;;;4993232;28;20517;-46
2021/11/30 05:03:45;;;;;;;3.95;3.65;;;;;;;;;;4993464;28;20173;-46
2021/11/30 05:06:11;;;;;;;7.95;4.70;;;;;;;;;;4993359;28;20297;-46
2021/11/30 05:08:37;;;;;;;4.35;3.95;;;;;;;;;;4993451;28;20570;-47
2021/11/30 05:11:03;;;;;;;5.33;4.60;;;;;;;;;;4992999;28;20188;-46
2021/11/30 05:13:29;;;;;;;4.53;4.23;;;;;;;;;;4993490;28;20396;-46
2021/11/30 05:15:55;;;;;;;5.57;4.97;;;;;;;;;;4993256;28;20899;-47
2021/11/30 05:18:22;;;;;;;6.10;5.50;;;;;;;;;;4993251;28;20219;-47
2021/11/30 05:20:48;;;;;;;6.70;5.60;;;;;;;;;;4992831;28;20924;-46
2021/11/30 05:23:16;;;;;;;8.10;6.40;;;;;;;;;;4993044;28;20671;-46
2021/11/30 05:25:44;;;;;;;7.57;6.80;;;;;;;;;;4993123;28;20193;-46
2021/11/30 05:28:10;;;;;;;7.60;6.80;;;;;;;;;;4993335;28;20192;-47
2021/11/30 05:30:38;;;;;;;7.55;6.78;;;;;;;;;;4992703;28;20196;-47
2021/11/30 05:33:05;;;;;;;7.80;7.10;;;;;;;;;;4993035;28;20191;-48
2021/11/30 05:35:32;;;;;;;6.10;5.50;;;;;;;;;;4992948;28;20634;-46
2021/11/30 05:37:58;;;;;;;13.00;6.68;;;;;;;;;;4992958;28;20585;-48
2021/11/30 05:40:24;;;;;;;7.30;6.57;;;;;;;;;;4992765;28;20668;-46
2021/11/30 05:42:50;;;;;;;6.90;6.15;;;;;;;;;;4992962;28;20173;-46
2021/11/30 05:45:16;;;;;;;6.00;5.40;;;;;;;;;;4992740;28;20173;-46
2021/11/30 05:47:42;;;;;;;10.60;7.33;;;;;;;;;;4992666;28;20462;-46
2021/11/30 05:50:08;;;;;;;10.02;7.18;;;;;;;;;;4992370;28;20403;-46
2021/11/30 05:52:34;;;;;;;13.70;7.20;;;;;;;;;;4992496;28;20181;-47
2021/11/30 05:55:00;;;;;;;10.33;7.80;;;;;;;;;;4992644;28;20208;-46
2021/11/30 05:57:27;;;;;;;11.57;6.60;;;;;;;;;;4992678;28;21104;-47
2021/11/30 05:59:53;;;;;;;11.73;7.45;;;;;;;;;;4992233;28;20451;-46
2021/11/30 06:02:22;;;;;;;9.82;7.07;;;;;;;;;;4992549;28;20192;-47
2021/11/30 06:04:48;;;;;;;7.53;6.50;;;;;;;;;;4992427;28;20168;-46
2021/11/30 06:07:14;;;;;;;13.17;7.03;;;;;;;;;;4992216;28;20196;-47
2021/11/30 06:09:40;;;;;;;7.18;6.47;;;;;;;;;;4992187;28;20482;-46
2021/11/30 06:12:06;;;;;;;5.07;3.78;;;;;;;;;;4992581;28;20232;-47
2021/11/30 06:14:32;;;;;;;5.63;5.13;;;;;;;;;;4992317;28;20205;-46
2021/11/30 06:16:58;;;;;;;6.30;5.32;;;;;;;;;;4992552;28;20259;-47
2021/11/30 06:19:24;;;;;;;5.50;4.77;;;;;;;;;;4992312;28;20208;-47
2021/11/30 06:21:51;;;;;;;5.30;4.43;;;;;;;;;;4992496;28;20999;-46
2021/11/30 06:24:17;;;;;;;4.80;4.30;;;;;;;;;;4992716;28;20396;-47
2021/11/30 06:26:44;;;;;;;5.30;4.75;;;;;;;;;;4992264;28;20558;-46
2021/11/30 06:29:10;;;;;;;5.10;4.30;;;;;;;;;;4992270;28;20165;-46
2021/11/30 06:31:36;;;;;;;4.20;3.87;;;;;;;;;;4992777;28;20185;-45
2021/11/30 06:34:02;;;;;;;4.03;3.67;;;;;;;;;;4992503;28;20416;-45
2021/11/30 06:36:28;;;;;;;4.60;4.20;;;;;;;;;;4992794;28;20412;-45
2021/11/30 06:38:57;;;;;;;4.00;3.70;;;;;;;;;;4993099;28;20415;-45
2021/11/30 06:41:23;;;;;;;4.65;4.07;;;;;;;;;;4992572;28;20554;-44
2021/11/30 06:43:49;;;;;;;3.53;3.23;;;;;;;;;;4992776;28;20244;-45
2021/11/30 06:46:15;;;;;;;5.50;3.80;;;;;;;;;;4995150;28;21000;-45
2021/11/30 06:48:41;;;;;;;4.60;4.13;;;;;;;;;;4996300;28;20966;-45
2021/11/30 06:51:07;;;;;;;3.73;3.43;;;;;;;;;;4996110;28;20223;-45
2021/11/30 06:53:34;;;;;;;3.88;3.58;;;;;;;;;;4996364;28;20503;-45
2021/11/30 06:56:00;;;;;;;4.10;3.70;;;;;;;;;;4996517;28;20180;-47
2021/11/30 06:58:26;;;;;;;4.20;3.85;;;;;;;;;;4996479;28;20685;-47
2021/11/30 07:00:52;;;;;;;3.50;3.20;;;;;;;;;;4996307;28;20196;-48
2021/11/30 07:03:22;;;;;;;3.08;2.88;;;;;;;;;;4996139;28;20168;-45
2021/11/30 07:05:55;;;;;;;3.80;3.40;;;;;;;;;;4996345;28;20282;-45
2021/11/30 07:11:07;;;;;;;3.85;3.45;;;;;;;;;;4995569;28;20279;-45
2021/11/30 07:13:35;;;;;;;5.75;4.45;;;;;;;;;;4996210;28;20165;-45
2021/11/30 07:16:05;;;;;;;4.53;4.13;;;;;;;;;;4995804;28;20192;-48
2021/11/30 07:18:32;;;;;;;4.15;3.75;;;;;;;;;;4995706;28;20219;-45
2021/11/30 07:20:58;;;;;;;4.40;4.00;;;;;;;;;;4995467;28;20656;-47
2021/11/30 07:23:25;;;;;;;7.65;4.47;;;;;;;;;;4995919;28;20196;-45
2021/11/30 07:25:52;;;;;;;5.78;4.38;;;;;;;;;;4995752;28;20255;-45
2021/11/30 07:28:19;;;;;;;5.70;5.00;;;;;;;;;;4995708;28;20649;-45
2021/11/30 07:30:45;;;;;;;5.30;4.30;;;;;;;;;;4978093;28;20193;-45
2021/11/30 07:33:11;;;;;;;5.85;4.90;;;;;;;;;;4995568;28;20169;-45
2021/11/30 07:35:39;;;;;;;5.90;4.97;;;;;;;;;;4995755;28;20184;-45
2021/11/30 07:38:05;;;;;;;5.72;4.68;;;;;;;;;;4995531;28;20157;-46
2021/11/30 07:40:31;;;;;;;5.10;4.70;;;;;;;;;;4995069;28;20189;-46
2021/11/30 07:42:57;;;;;;;7.07;5.13;;;;;;;;;;4995209;28;20680;-48
2021/11/30 07:45:23;;;;;;;5.90;5.10;;;;;;;;;;4995407;28;20427;-45
2021/11/30 07:47:49;;;;;;;7.63;6.20;;;;;;;;;;4995283;28;20818;-45
2021/11/30 07:50:15;;;;;;;11.45;6.72;;;;;;;;;;4995019;28;20255;-45
2021/11/30 07:52:43;;;;;;;8.32;6.15;;;;;;;;;;4995240;28;20727;-45
2021/11/30 07:55:10;;;;;;;6.20;5.30;;;;;;;;;;4995057;28;20175;-45
2021/11/30 07:57:38;;;;;;;8.30;6.93;;;;;;;;;;4995243;28;20256;-46
2021/11/30 08:00:07;;;;;;;10.18;7.00;;;;;;;;;;4994921;28;20165;-44
2021/11/30 08:02:33;;;;;;;9.77;7.13;;;;;;;;;;4995120;28;20173;-45
2021/11/30 08:04:59;;;;;;;8.35;6.45;;;;;;;;;;4995233;28;20260;-46
2021/11/30 08:07:24;;;;;;;9.37;6.50;;;;;;;;;;4995010;28;20288;-48
2021/11/30 08:09:50;;;;;;;10.50;6.60;;;;;;;;;;4994689;28;20401;-46
2021/11/30 08:12:17;;;;;;;10.13;7.90;;;;;;;;;;4994817;28;20404;-45
2021/11/30 08:14:43;;;;;;;12.00;7.45;;;;;;;;;;4994887;28;20908;-47
2021/11/30 08:17:17;;;;;;;8.87;6.40;;;;;;;;;;4994706;28;20174;-45
2021/11/30 08:19:44;;;;;;;12.18;8.52;;;;;;;;;;4994694;28;20736;-48
2021/11/30 08:22:10;;;;;;;15.75;7.95;;;;;;;;;;4994795;28;20193;-45
2021/11/30 08:24:37;;;;;;;11.70;8.85;;;;;;;;;;4994642;28;20207;-45
2021/11/30 08:27:04;;;;;;;13.55;9.23;;;;;;;;;;4994730;28;20205;-45
2021/11/30 08:29:31;;;;;;;9.67;8.60;;;;;;;;;;4994670;28;20197;-45
2021/11/30 08:31:57;;;;;;;12.20;8.93;;;;;;;;;;4994318;28;20900;-45
2021/11/30 08:34:23;;;;;;;10.38;8.15;;;;;;;;;;4994975;28;20530;-45
2021/11/30 08:36:49;;;;;;;10.53;7.63;;;;;;;;;;4994861;28;20174;-45
2021/11/30 08:39:15;;;;;;;9.80;7.90;;;;;;;;;;4994417;28;20400;-45
2021/11/30 08:41:41;;;;;;;12.07;8.65;;;;;;;;;;4994416;28;20912;-45
2021/11/30 08:44:07;;;;;;;9.45;7.63;;;;;;;;;;4994591;28;20168;-46
2021/11/30 08:46:33;;;;;;;10.07;8.10;;;;;;;;;;4994364;28;20283;-46
2021/11/30 08:48:59;;;;;;;11.63;8.02;;;;;;;;;;4994440;28;20398;-48
2021/11/30 08:51:25;;;;;;;11.80;8.20;;;;;;;;;;4993983;28;20190;-45
2021/11/30 08:53:51;;;;;;;11.07;8.37;;;;;;;;;;4993962;28;20430;-45
2021/11/30 08:56:17;;;;;;;8.83;7.20;;;;;;;;;;4994370;28;20439;-44
2021/11/30 08:58:43;;;;;;;10.47;7.90;;;;;;;;;;4994415;28;20440;-45
2021/11/30 09:01:10;;;;;;;8.23;6.50;;;;;;;;;;4993834;28;20917;-45
2021/11/30 09:03:36;;;;;;;7.53;6.77;;;;;;;;;;4994299;28;20727;-45
2021/11/30 09:06:02;;;;;;;7.33;6.53;;;;;;;;;;4990152;28;20824;-45
2021/11/30 09:08:28;;;;;;;9.63;8.47;;;;;;;;;;4993672;28;20513;-45
2021/11/30 09:10:54;;;;;;;11.17;8.30;;;;;;;;;;4994049;28;20949;-45
2021/11/30 09:13:20;;;;;;;8.13;6.97;;;;;;;;;;4994163;28;20432;-44
2021/11/30 09:15:46;;;;;;;9.50;7.37;;;;;;;;;;4993871;28;20440;-45
2021/11/30 09:18:12;;;;;;;7.77;6.83;;;;;;;;;;4994197;28;20919;-44
2021/11/30 09:20:38;;;;;;;8.17;7.33;;;;;;;;;;4993907;28;20593;-44
2021/11/30 09:23:05;;;;;;;7.97;5.77;;;;;;;;;;4993935;28;20901;-45
2021/11/30 09:25:31;;;;;;;8.83;6.90;;;;;;;;;;4993796;28;20492;-45
2021/11/30 09:27:58;;;;;;;7.70;6.90;;;;;;;;;;4994239;28;20408;-45
2021/11/30 09:30:25;;;;;;;7.97;6.87;;;;;;;;;;4993320;28;20420;-45
2021/11/30 09:32:52;;;;;;;9.87;7.07;;;;;;;;;;4993787;28;20773;-45
2021/11/30 09:35:20;;;;;;;9.40;7.47;;;;;;;;;;4993790;28;20492;-45
2021/11/30 09:37:48;;;;;;;8.73;6.80;;;;;;;;;;4993621;28;20409;-48
2021/11/30 09:40:15;;;;;;;7.77;6.70;;;;;;;;;;4993758;28;20428;-45
2021/11/30 09:42:43;;;;;;;6.90;6.20;;;;;;;;;;4993700;28;20400;-45
2021/11/30 09:45:10;;;;;;;8.90;6.50;;;;;;;;;;4993540;28;20404;-46
2021/11/30 09:47:37;;;;;;;7.37;6.50;;;;;;;;;;4993339;28;20480;-44
2021/11/30 09:50:04;;;;;;;7.70;6.30;;;;;;;;;;4993640;28;20400;-47
2021/11/30 09:52:30;;;;;;;7.67;6.77;;;;;;;;;;4993686;28;20501;-44
2021/11/30 09:54:56;;;;;;;10.13;6.77;;;;;;;;;;4993545;28;20412;-45
2021/11/30 09:57:22;;;;;;;10.00;7.30;;;;;;;;;;4993446;28;20827;-44
2021/11/30 09:59:48;;;;;;;7.67;6.47;;;;;;;;;;4993131;28;20912;-45
2021/11/30 10:02:15;;;;;;;8.37;6.63;;;;;;;;;;4994133;28;20929;-45
2021/11/30 10:04:41;;;;;;;10.60;7.93;;;;;;;;;;4993188;28;20773;-45
2021/11/30 10:07:08;;;;;;;9.03;7.27;;;;;;;;;;4993144;28;20517;-45
2021/11/30 10:09:34;;;;;;;9.33;6.67;;;;;;;;;;4993443;28;20397;-44
2021/11/30 10:12:01;;;;;;;11.43;7.47;;;;;;;;;;4993122;28;20964;-44
2021/11/30 10:14:33;;;;;;;7.40;6.60;;;;;;;;;;4993200;28;20821;-45
2021/11/30 10:17:12;;;;;;;7.97;6.70;;;;;;;;;;4993469;28;20483;-45
2021/11/30 10:19:39;;;;;;;6.83;6.10;;;;;;;;;;4993133;28;20462;-45
2021/11/30 10:22:05;;;;;;;7.20;6.37;;;;;;;;;;4997384;28;20805;-48
2021/11/30 10:24:31;;;;;;;7.03;5.17;;;;;;;;;;4997447;28;20412;-44
2021/11/30 10:26:57;;;;;;;5.33;4.83;;;;;;;;;;4997462;28;20461;-45
2021/11/30 10:29:24;;;;;;;5.53;5.03;;;;;;;;;;4997605;28;20835;-48
2021/11/30 10:31:52;;;;;;;9.47;4.80;;;;;;;;;;4997097;28;20513;-45
2021/11/30 10:34:19;;;;;;;5.27;4.67;;;;;;;;;;4997297;28;20405;-48
2021/11/30 10:36:48;;;;;;;5.37;4.83;;;;;;;;;;4997234;28;20406;-45
2021/11/30 10:39:23;;;;;;;5.47;4.97;;;;;;;;;;4997313;28;20407;-46
2021/11/30 10:41:51;;;;;;;6.63;4.60;;;;;;;;;;4996941;28;20474;-45
2021/11/30 10:44:26;;;;;;;5.43;4.77;;;;;;;;;;4996793;28;20448;-46
2021/11/30 10:46:53;;;;;;;6.07;4.70;;;;;;;;;;4996735;28;20555;-45
2021/11/30 10:49:24;;;;;;;5.00;4.50;;;;;;;;;;4997017;28;20426;-44
2021/11/30 10:51:53;;;;;;;5.20;4.70;;;;;;;;;;4996460;28;20479;-45
2021/11/30 10:54:22;;;;;;;6.33;4.53;;;;;;;;;;4996779;28;20427;-48
2021/11/30 10:56:59;;;;;;;6.80;4.67;;;;;;;;;;4996858;28;20406;-46
2021/11/30 10:59:25;;;;;;;5.67;5.17;;;;;;;;;;4996782;28;20405;-45
2021/11/30 11:01:51;;;;;;;6.03;5.20;;;;;;;;;;4996679;28;20437;-45
2021/11/30 11:04:18;;;;;;;6.03;5.50;;;;;;;;;;4995325;28;20441;-45
2021/11/30 11:07:04;;;;;;;5.80;5.30;;;;;;;;;;4996623;28;20527;-45
2021/11/30 11:09:40;;;;;;;5.43;5.00;;;;;;;;;;4996960;28;20406;-45
2021/11/30 11:12:08;;;;;;;5.63;4.97;;;;;;;;;;4996433;28;20447;-48
2021/11/30 11:14:43;;;;;;;6.07;5.03;;;;;;;;;;4996066;28;20404;-45
2021/11/30 11:17:10;;;;;;;6.60;5.17;;;;;;;;;;4996212;28;20901;-48
2021/11/30 11:19:39;;;;;;;7.07;5.30;;;;;;;;;;4995514;28;20406;-46
2021/11/30 11:22:15;;;;;;;5.63;5.13;;;;;;;;;;4996136;28;20425;-45
2021/11/30 11:24:43;;;;;;;6.13;5.07;;;;;;;;;;4995742;28;20410;-45
2021/11/30 11:27:09;;;;;;;5.80;5.30;;;;;;;;;;4995732;28;20895;-45
2021/11/30 11:29:41;;;;;;;4.37;3.93;;;;;;;;;;4996071;28;20395;-46
2021/11/30 11:32:08;;;;;;;5.30;4.80;;;;;;;;;;4995399;28;20430;-45
2021/11/30 11:34:34;;;;;;;6.13;4.20;;;;;;;;;;4995649;28;20464;-45
2021/11/30 11:37:03;;;;;;;4.67;4.27;;;;;;;;;;4995466;28;20409;-46
2021/11/30 11:39:29;;;;;;;4.23;3.83;;;;;;;;;;4995525;28;20406;-46
2021/11/30 11:42:00;;;;;;;4.67;4.27;;;;;;;;;;4995177;28;20428;-45
2021/11/30 11:44:26;;;;;;;4.40;4.00;;;;;;;;;;4995446;28;20888;-45
2021/11/30 11:46:53;;;;;;;5.00;4.50;;;;;;;;;;4995301;28;20506;-44
2021/11/30 11:49:23;;;;;;;4.50;4.10;;;;;;;;;;4995202;28;20406;-46
2021/11/30 11:51:50;;;;;;;4.60;4.00;;;;;;;;;;4994843;28;20419;-47
2021/11/30 11:54:22;;;;;;;4.40;4.00;;;;;;;;;;4995040;28;20489;-45
2021/11/30 11:57:23;;;;;;;4.70;4.20;;;;;;;;;;4995211;28;20415;-46
2021/11/30 11:59:49;;;;;;;5.10;4.20;;;;;;;;;;4915569;29;20472;-47
2021/11/30 12:02:20;;;;;;;5.37;4.70;;;;;;;;;;4979211;28;20512;-48
2021/11/30 12:04:47;;;;;;;4.33;3.93;;;;;;;;;;4995066;28;20460;-47
2021/11/30 12:07:13;;;;;;;5.00;3.23;;;;;;;;;;4995133;28;20958;-44
2021/11/30 12:09:39;;;;;;;3.83;3.43;;;;;;;;;;4994765;28;20898;-46
2021/11/30 12:12:11;;;;;;;2.90;2.70;;;;;;;;;;4995267;28;20419;-45
2021/11/30 12:14:38;;;;;;;3.20;2.90;;;;;;;;;;4994820;28;20404;-45
2021/11/30 12:17:12;;;;;;;2.20;2.10;;;;;;;;;;4994787;28;20417;-45
2021/11/30 12:19:39;;;;;;;3.83;2.27;;;;;;;;;;4994464;28;20946;-50
2021/11/30 12:22:06;;;;;;;6.90;2.50;;;;;;;;;;4994576;28;20919;-45
2021/11/30 12:24:39;;;;;;;2.90;2.67;;;;;;;;;;4994744;28;20925;-45
2021/11/30 12:27:14;;;;;;;2.70;2.50;;;;;;;;;;4977075;28;20488;-45
2021/11/30 12:29:40;;;;;;;2.73;2.50;;;;;;;;;;4994401;28;20400;-46
2021/11/30 12:32:20;;;;;;;3.00;2.80;;;;;;;;;;4995204;28;20462;-45
2021/11/30 12:34:50;;;;;;;3.00;2.80;;;;;;;;;;4994371;28;20410;-45
2021/11/30 12:37:23;;;;;;;2.73;2.40;;;;;;;;;;4994409;28;20887;-48
2021/11/30 12:39:55;;;;;;;3.10;2.33;;;;;;;;;;4994481;28;20506;-45
2021/11/30 12:42:21;;;;;;;3.67;2.90;;;;;;;;;;4993911;28;20489;-45
2021/11/30 12:44:48;;;;;;;3.00;2.80;;;;;;;;;;4994085;28;20438;-46
2021/11/30 12:47:21;;;;;;;3.07;2.77;;;;;;;;;;4994178;28;20520;-45
2021/11/30 12:49:48;;;;;;;3.60;3.30;;;;;;;;;;4976707;28;20410;-45
2021/11/30 12:52:18;;;;;;;5.50;3.53;;;;;;;;;;4998027;28;20441;-45
2021/11/30 12:55:02;;;;;;;4.30;3.90;;;;;;;;;;4997901;28;20410;-44
2021/11/30 12:57:31;;;;;;;4.17;3.70;;;;;;;;;;5007265;28;20426;-45
2021/11/30 12:59:58;;;;;;;4.90;4.50;;;;;;;;;;4992501;28;20891;-47
2021/11/30 13:02:28;;;;;;;4.57;4.17;;;;;;;;;;4993372;28;20421;-46
2021/11/30 13:05:20;;;;;;;5.50;4.47;;;;;;;;;;4993502;28;20400;-46
2021/11/30 13:07:49;;;;;;;5.63;4.87;;;;;;;;;;4993450;28;20454;-46
2021/11/30 13:10:48;;;;;;;5.63;5.10;;;;;;;;;;4992839;28;20443;-46
2021/11/30 13:13:35;;;;;;;6.27;4.50;;;;;;;;;;4978186;28;20420;-46
2021/11/30 13:16:02;;;;;;;4.47;4.07;;;;;;;;;;4993214;28;20416;-46
2021/11/30 13:18:31;;;;;;;3.63;3.33;;;;;;;;;;4993015;28;20886;-46
2021/11/30 13:20:58;;;;;;;3.73;3.43;;;;;;;;;;4992790;28;20449;-47
2021/11/30 13:23:25;;;;;;;4.40;3.00;;;;;;;;;;4991477;28;20429;-46
2021/11/30 13:25:52;;;;;;;4.93;2.63;;;;;;;;;;4992822;28;20912;-47
2021/11/30 13:28:27;;;;;;;3.40;3.10;;;;;;;;;;4992907;28;20398;-46
2021/11/30 13:30:55;;;;;;;3.13;2.83;;;;;;;;;;4992445;28;20929;-46
2021/11/30 13:33:22;;;;;;;3.00;2.57;;;;;;;;;;4992936;28;20469;-46
2021/11/30 13:35:51;;;;;;;2.97;2.33;;;;;;;;;;4975420;28;20485;-46
2021/11/30 13:38:17;;;;;;;2.90;2.70;;;;;;;;;;4992804;28;20409;-46
2021/11/30 13:40:43;;;;;;;2.50;2.30;;;;;;;;;;4992458;28;20419;-46
2021/11/30 13:43:11;;;;;;;6.03;2.70;;;;;;;;;;4992717;28;20405;-47
2021/11/30 13:45:42;;;;;;;3.07;2.87;;;;;;;;;;4992628;28;20446;-46
2021/11/30 13:48:08;;;;;;;3.57;3.20;;;;;;;;;;4992694;28;20449;-47
2021/11/30 13:50:39;;;;;;;3.60;3.30;;;;;;;;;;4992356;28;20421;-47
2021/11/30 13:53:07;;;;;;;6.00;3.83;;;;;;;;;;4992451;28;20465;-46
2021/11/30 13:55:33;;;;;;;5.73;3.67;;;;;;;;;;4992228;28;20401;-47
2021/11/30 13:58:01;;;;;;;3.90;3.00;;;;;;;;;;4992279;28;20410;-46
2021/11/30 14:00:27;;;;;;;3.90;3.60;;;;;;;;;;4992272;28;20454;-46
2021/11/30 14:02:53;;;;;;;4.10;3.80;;;;;;;;;;4992527;28;20894;-46
2021/11/30 14:05:19;;;;;;;4.00;3.70;;;;;;;;;;4992435;28;20778;-46
2021/11/30 14:08:03;;;;;;;7.67;3.10;;;;;;;;;;4992337;28;20473;-46
2021/11/30 14:10:31;;;;;;;3.93;3.10;;;;;;;;;;4992403;28;20427;-46
2021/11/30 14:13:00;;;;;;;3.93;3.00;;;;;;;;;;4992343;28;20834;-46
2021/11/30 14:15:26;;;;;;;2.90;2.70;;;;;;;;;;4992316;28;20419;-46
2021/11/30 14:18:09;;;;;;;3.87;3.10;;;;;;;;;;4992287;28;20414;-46
2021/11/30 14:20:35;;;;;;;3.67;3.37;;;;;;;;;;4992083;28;20767;-46
2021/11/30 14:23:12;;;;;;;3.93;3.40;;;;;;;;;;4992079;28;20415;-46
2021/11/30 14:25:38;;;;;;;3.57;3.27;;;;;;;;;;4992346;28;20797;-46
2021/11/30 14:28:04;;;;;;;4.80;3.63;;;;;;;;;;4992134;28;20969;-46
2021/11/30 14:30:34;;;;;;;4.10;3.70;;;;;;;;;;4991927;28;20841;-46
2021/11/30 14:33:05;;;;;;;5.77;3.63;;;;;;;;;;4991138;28;20422;-46
2021/11/30 14:36:00;;;;;;;4.60;4.20;;;;;;;;;;4991888;28;20407;-47
2021/11/30 14:38:26;;;;;;;4.00;3.70;;;;;;;;;;4971872;28;20415;-47
2021/11/30 14:40:53;;;;;;;4.17;3.87;;;;;;;;;;4991936;28;20488;-46
2021/11/30 14:43:19;;;;;;;4.80;4.20;;;;;;;;;;4991721;28;20452;-46
2021/11/30 14:45:53;;;;;;;7.17;4.93;;;;;;;;;;4991978;28;20409;-46
2021/11/30 14:48:39;;;;;;;6.53;3.77;;;;;;;;;;4992050;28;20405;-47
2021/11/30 14:51:05;;;;;;;5.33;4.43;;;;;;;;;;4991398;28;20460;-46